No particular awareness of the weather is required.    There are no Weather-warnings


Meteo18 Weather Cam more information Meteo18 Weather Cam


Thunder radar more information blitzortung!


Rain radar more information rain snow radar


Visit our other weather sites:

Template documentation
and downloads

And another site



Weather Underground History page Text

Daily Summary for October 11, 2017 Units:  English    Metric   Both
« Previous Day
Next Day »
Daily Weekly Monthly Yearly Custom
  High: Low: Average:
Temperature: TemperatureC °F 8.4 °F 13.5 °F
Dew Point: DewpointC °F 8.0 °F 11.2 °F
Humidity: Humidity % 58 % 86 %
Wind Speed: WindSpeedKMH mph 0.0 mph 1.2 mph
Wind Gust: WindSpeedGustKMH mph - -
Wind:- - SW
Pressure: PressurehPa in 1018.8 in -
Precipitation: 0.3 in    
Historical Graphs
 
 
Tabular Data for October 11, 2017
Time Temperature Dew Point Pressure Wind Wind Speed Wind Gust Humidity Rainfall Rate (Hourly)
TemperatureC °F DewpointC °F PressurehPa in Calm     Humidity % HourlyPrecipMM in
00:02 13.4 °F 12.1 °F 1022.6 in Calm     92 % 0.0 in
00:12 13.3 °F 12.2 °F 1022.6 in Calm     93 % 0.0 in
00:17 13.2 °F 12.1 °F 1022.6 in Calm     93 % 0.0 in
00:22 13.2 °F 12.1 °F 1022.2 in Calm     93 % 0.0 in
00:32 13.2 °F 12.1 °F 1022.2 in Calm     93 % 0.0 in
00:42 13.1 °F 12.0 °F 1022.2 in Calm     93 % 0.0 in
00:47 13.1 °F 12.0 °F 1022.2 in Calm     93 % 0.0 in
00:52 13.0 °F 12.1 °F 1022.2 in Calm     94 % 0.0 in
00:57 12.9 °F 12.0 °F 1022.2 in Calm     94 % 0.0 in
01:02 12.9 °F 12.0 °F 1022.2 in Calm     94 % 0.0 in
01:07 12.9 °F 12.0 °F 1022.2 in Calm     94 % 0.0 in
01:12 12.9 °F 12.0 °F 1022.2 in Calm     94 % 0.0 in
01:17 12.9 °F 12.0 °F 1021.9 in Calm     94 % 0.0 in
01:22 12.8 °F 11.9 °F 1021.9 in Calm     94 % 0.0 in
01:27 12.8 °F 11.9 °F 1021.9 in Calm     94 % 0.0 in
01:32 12.8 °F 11.9 °F 1021.9 in Calm     94 % 0.0 in
01:42 12.7 °F 11.8 °F 1021.9 in Calm     94 % 0.0 in
01:47 12.6 °F 11.7 °F 1021.9 in Calm     94 % 0.0 in
01:52 12.5 °F 11.7 °F 1021.9 in Calm     95 % 0.0 in
01:57 12.3 °F 11.5 °F 1021.9 in Calm     95 % 0.0 in
02:02 12.2 °F 11.4 °F 1022.2 in Calm     95 % 0.0 in
02:12 12.2 °F 11.4 °F 1022.2 in Calm     95 % 0.0 in
02:17 12.2 °F 11.6 °F 1022.2 in Calm     96 % 0.0 in
02:22 12.0 °F 11.2 °F 1021.9 in Calm     95 % 0.0 in
02:27 11.9 °F 11.3 °F 1021.9 in Calm     96 % 0.0 in
02:32 11.9 °F 11.3 °F 1021.9 in Calm     96 % 0.0 in
02:37 11.8 °F 11.2 °F 1021.9 in Calm     96 % 0.0 in
02:42 11.6 °F 10.8 °F 1021.9 in Calm     95 % 0.0 in
02:47 11.5 °F 10.9 °F 1021.9 in Calm   1.6 mph 96 % 0.0 in
02:52 11.6 °F 11.0 °F 1021.9 in Calm   1.6 mph 96 % 0.0 in
02:57 11.7 °F 11.1 °F 1021.9 in Calm   1.6 mph 96 % 0.0 in
03:02 11.6 °F 11.0 °F 1021.9 in Calm     96 % 0.0 in
03:07 11.4 °F 10.8 °F 1021.9 in Calm     96 % 0.0 in
03:12 11.2 °F 10.6 °F 1021.9 in Calm     96 % 0.0 in
03:17 11.1 °F 10.5 °F 1021.9 in Calm     96 % 0.0 in
03:22 11.0 °F 10.4 °F 1021.9 in Calm     96 % 0.0 in
03:27 10.9 °F 10.3 °F 1021.9 in Calm     96 % 0.0 in
03:32 10.9 °F 10.4 °F 1021.9 in Calm     97 % 0.0 in
03:37 11.1 °F 10.6 °F 1021.9 in Calm     97 % 0.0 in
03:42 11.0 °F 10.5 °F 1021.9 in Calm     97 % 0.0 in
03:47 10.8 °F 10.2 °F 1021.6 in Calm     96 % 0.0 in
03:52 10.8 °F 10.3 °F 1021.6 in Calm     97 % 0.0 in
03:57 10.9 °F 10.4 °F 1021.6 in Calm     97 % 0.0 in
04:02 10.8 °F 10.2 °F 1021.6 in Calm     96 % 0.0 in
04:07 10.7 °F 10.1 °F 1021.6 in Calm     96 % 0.0 in
04:12 10.6 °F 10.0 °F 1021.6 in Calm     96 % 0.0 in
04:17 10.6 °F 10.0 °F 1021.6 in Calm     96 % 0.0 in
04:22 10.4 °F 9.8 °F 1021.6 in Calm     96 % 0.0 in
04:32 10.3 °F 9.7 °F 1021.6 in Calm     96 % 0.0 in
04:37 10.3 °F 9.8 °F 1021.6 in Calm     97 % 0.0 in
04:42 10.3 °F 9.8 °F 1021.6 in Calm   1.6 mph 97 % 0.0 in
04:52 10.1 °F 9.5 °F 1021.2 in Calm   1.6 mph 96 % 0.0 in
04:57 10.1 °F 9.6 °F 1021.6 in Calm   1.6 mph 97 % 0.0 in
05:02 9.9 °F 9.3 °F 1021.2 in Calm   1.6 mph 96 % 0.0 in
05:07 9.9 °F 9.4 °F 1021.2 in Calm   1.6 mph 97 % 0.0 in
05:12 10.1 °F 9.6 °F 1021.2 in Calm   1.6 mph 97 % 0.0 in
05:22 9.9 °F 9.4 °F 1021.2 in Calm   1.6 mph 97 % 0.0 in
05:32 9.6 °F 9.0 °F 1021.2 in Calm     96 % 0.0 in
05:42 9.4 °F 8.9 °F 1021.2 in Calm     97 % 0.0 in
05:47 9.3 °F 8.8 °F 1021.2 in Calm     97 % 0.0 in
05:52 9.2 °F 8.7 °F 1021.2 in Calm     97 % 0.0 in
05:57 9.1 °F 8.6 °F 1021.2 in Calm   1.6 mph 97 % 0.0 in
06:02 9.1 °F 8.6 °F 1021.2 in Calm   1.6 mph 97 % 0.0 in
06:12 9.1 °F 8.6 °F 1021.2 in Calm   1.6 mph 97 % 0.0 in
06:17 9.1 °F 8.6 °F 1021.2 in Calm     97 % 0.0 in
06:22 9.1 °F 8.6 °F 1021.2 in Calm     97 % 0.0 in
06:32 9.1 °F 8.6 °F 1021.2 in Calm     97 % 0.0 in
06:42 9.0 °F 8.5 °F 1021.2 in Calm     97 % 0.0 in
06:47 8.9 °F 8.4 °F 1021.2 in Calm     97 % 0.0 in
06:52 8.8 °F 8.3 °F 1021.2 in Calm     97 % 0.0 in
07:12 8.8 °F 8.3 °F 1021.2 in Calm     97 % 0.0 in
07:17 8.7 °F 8.3 °F 1021.2 in Calm     97 % 0.0 in
07:22 8.5 °F 8.1 °F 1021.2 in Calm     97 % 0.0 in
07:32 8.4 °F 8.0 °F 1021.2 in Calm     97 % 0.0 in
17:37 21.4 °F 12.8 °F 1018.8 in SSW 6.4 mph 19.3 mph 58 % 0.0 in
17:42 21.4 °F 13.1 °F 1018.8 in SSW 4.8 mph 12.9 mph 59 % 0.0 in
17:47 21.3 °F 13.2 °F 1018.8 in SW 6.4 mph 17.7 mph 60 % 0.0 in
17:57 21.2 °F 13.1 °F 1018.8 in South 8.0 mph 16.1 mph 60 % 0.0 in
18:02 21.2 °F 12.9 °F 1018.8 in SW 3.2 mph 16.1 mph 59 % 0.0 in
18:07 21.1 °F 13.0 °F 1018.8 in WSW 3.2 mph 16.1 mph 60 % 0.0 in
18:12 21.1 °F 13.0 °F 1018.8 in SSW 3.2 mph 11.3 mph 60 % 0.0 in
18:17 20.9 °F 13.1 °F 1018.8 in SSW 3.2 mph 11.3 mph 61 % 0.0 in
18:22 20.9 °F 13.3 °F 1018.8 in SSW 1.6 mph 11.3 mph 62 % 0.0 in
18:27 20.8 °F 13.5 °F 1018.8 in SW 1.6 mph 6.4 mph 63 % 0.0 in
18:32 20.7 °F 13.6 °F 1018.8 in SW 1.6 mph 6.4 mph 64 % 0.0 in
18:42 19.8 °F 13.3 °F 1019.2 in SW 1.6 mph 4.8 mph 66 % 0.0 in
18:52 19.4 °F 13.1 °F 1018.8 in SSW 1.6 mph 3.2 mph 67 % 0.0 in
18:57 19.2 °F 13.1 °F 1018.8 in Calm   3.2 mph 68 % 0.0 in
19:02 18.9 °F 13.1 °F 1018.8 in Calm   3.2 mph 69 % 0.0 in
19:07 18.6 °F 13.0 °F 1019.2 in Calm   1.6 mph 70 % 0.0 in
19:12 18.2 °F 13.1 °F 1019.2 in Calm   1.6 mph 72 % 0.0 in
19:17 17.9 °F 12.8 °F 1019.2 in Calm   3.2 mph 72 % 0.0 in
19:22 17.7 °F 12.8 °F 1019.2 in Calm   3.2 mph 73 % 0.0 in
19:27 17.4 °F 12.7 °F 1019.2 in SSW 1.6 mph 3.2 mph 74 % 0.0 in
19:32 17.1 °F 12.6 °F 1019.2 in SW 3.2 mph 3.2 mph 75 % 0.0 in
19:37 16.9 °F 12.4 °F 1019.2 in SW 3.2 mph 3.2 mph 75 % 0.0 in
19:42 17.1 °F 12.6 °F 1019.2 in Calm   4.8 mph 75 % 0.0 in
19:47 17.1 °F 12.6 °F 1019.2 in SW 1.6 mph 4.8 mph 75 % 0.0 in
19:52 17.1 °F 12.4 °F 1019.2 in SW 1.6 mph 4.8 mph 74 % 0.0 in
19:57 17.2 °F 12.5 °F 1019.2 in SSW 1.6 mph 4.8 mph 74 % 0.0 in
20:02 17.1 °F 12.4 °F 1019.5 in Calm   3.2 mph 74 % 0.0 in
20:12 16.8 °F 12.5 °F 1019.2 in SW 1.6 mph 3.2 mph 76 % 0.0 in
20:22 16.4 °F 12.2 °F 1019.5 in Calm   3.2 mph 76 % 0.0 in
20:27 16.2 °F 12.2 °F 1019.5 in Calm   3.2 mph 77 % 0.0 in
20:37 15.8 °F 12.2 °F 1019.5 in SW 1.6 mph 1.6 mph 79 % 0.0 in
20:42 15.8 °F 12.4 °F 1019.5 in West 1.6 mph 3.2 mph 80 % 0.0 in
20:47 15.6 °F 12.4 °F 1019.5 in West 1.6 mph 3.2 mph 81 % 0.0 in
20:52 15.6 °F 12.4 °F 1019.9 in Calm   3.2 mph 81 % 0.0 in
20:57 15.7 °F 12.4 °F 1019.9 in WSW 3.2 mph 4.8 mph 81 % 0.0 in
21:07 15.9 °F 12.6 °F 1019.9 in SW 3.2 mph 6.4 mph 81 % 0.0 in
21:17 16.0 °F 12.6 °F 1019.9 in SW 1.6 mph 6.4 mph 80 % 0.0 in
21:27 15.8 °F 12.5 °F 1019.9 in Calm   4.8 mph 81 % 0.0 in
21:32 15.4 °F 12.2 °F 1019.9 in NE 1.6 mph 4.8 mph 81 % 0.0 in
21:42 14.6 °F 11.9 °F 1019.9 in Calm   1.6 mph 84 % 0.0 in
21:47 14.6 °F 11.9 °F 1019.9 in Calm   1.6 mph 84 % 0.0 in
21:52 14.3 °F 11.8 °F 1020.2 in Calm   1.6 mph 85 % 0.0 in
21:57 14.2 °F 11.7 °F 1020.2 in Calm   1.6 mph 85 % 0.0 in
22:02 14.0 °F 11.7 °F 1020.2 in Calm   1.6 mph 86 % 0.0 in
22:12 13.7 °F 11.4 °F 1020.2 in South 1.6 mph 3.2 mph 86 % 0.0 in
22:17 13.4 °F 11.3 °F 1020.2 in South 1.6 mph 3.2 mph 87 % 0.0 in
22:22 13.2 °F 11.1 °F 1020.2 in South 1.6 mph 3.2 mph 87 % 0.0 in
22:27 13.0 °F 11.1 °F 1020.2 in Calm   3.2 mph 88 % 0.0 in
22:37 12.9 °F 11.1 °F 1020.2 in Calm   3.2 mph 89 % 0.0 in
22:42 12.9 °F 11.1 °F 1020.2 in Calm   1.6 mph 89 % 0.0 in
22:47 12.9 °F 11.1 °F 1020.2 in Calm   1.6 mph 89 % 0.0 in
22:52 12.9 °F 11.3 °F 1020.2 in Calm   1.6 mph 90 % 0.0 in
22:57 13.0 °F 11.4 °F 1020.5 in SSW 1.6 mph 3.2 mph 90 % 0.0 in
23:02 13.0 °F 11.2 °F 1020.5 in South 1.6 mph 3.2 mph 89 % 0.0 in
23:07 13.4 °F 11.5 °F 1020.5 in SSW 4.8 mph 9.7 mph 88 % 0.0 in
23:12 13.9 °F 11.6 °F 1020.5 in SSW 4.8 mph 12.9 mph 86 % 0.0 in
23:17 14.3 °F 11.5 °F 1020.5 in WSW 11.3 mph 12.9 mph 83 % 0.0 in
23:22 14.9 °F 11.9 °F 1020.5 in SSW 4.8 mph 12.9 mph 82 % 0.0 in
23:27 15.5 °F 12.1 °F 1020.9 in WSW 6.4 mph 17.7 mph 80 % 0.0 in
23:32 15.7 °F 12.1 °F 1020.9 in WSW 4.8 mph 17.7 mph 79 % 0.0 in
23:42 15.9 °F 12.1 °F 1020.9 in WSW 6.4 mph 17.7 mph 78 % 0.0 in
23:47 15.9 °F 12.3 °F 1020.9 in WSW 8.0 mph 22.5 mph 79 % 0.0 in
23:52 15.9 °F 12.3 °F 1020.9 in WSW 9.7 mph 22.5 mph 79 % 0.0 in
23:57 15.8 °F 12.4 °F 1020.9 in WSW 19.3 mph 22.5 mph 80 % 0.0 in
Meteo18
Compliments of Weather Underground - 4 mb

Script developed by  Jim McMurry - jmcmurry@mwt.net Adapted for the template by  Wim van der Kuil - Leuven-Template.eu

You find our weather info also at:

European Weather Network

Weather Underground

Equipment we use:

Weather-station
Davis Vue

Weather-program
Meteobridge

Weather-server
Raspberry PI 2 B+

Provider
1 and 1

Davis Vue

Meteobridge

Raspberry PI 2 B+

1 and 1